28 de setembro de 2022

Hora Código Clima Temp. Visibilidade Tecto Vento METAR/SPECI
18:30
V
28 °C 10 km+ - 120° 120° 14 kt METAR YHID 280830Z AUTO 12014KT 9999 // NCD 28/24 Q1008 RF00.0/000.0
18:00
V
29 °C 10 km+ - 120° 120° 13 kt METAR YHID 280800Z AUTO 12013KT 9999 // NCD 29/24 Q1007 RF00.0/000.0
17:30
V
29 °C 10 km+ - 110° 110° 14 kt METAR YHID 280730Z AUTO 11014KT 9999 // NCD 29/24 Q1007 RF00.0/000.0
17:00
V
30 °C 10 km+ - 110° 110° 14 kt METAR YHID 280700Z AUTO 11014KT 9999 // NCD 30/24 Q1007 RF00.0/000.0
16:30
V
31 °C 10 km+ - 100° 100° 15 kt METAR YHID 280630Z AUTO 10015KT 9999 // NCD 31/24 Q1007 RF00.0/000.0
16:00
V
30 °C 10 km+ - 090° 090° 16 kt METAR YHID 280600Z AUTO 09016KT 9999 // NCD 30/25 Q1007 RF00.0/000.0
15:30
V
31 °C 10 km+ - 090° 090° 14 kt METAR YHID 280530Z AUTO 09014KT 9999 // SCT016 31/24 Q1007 RF00.0/000.0
15:00
V
31 °C 10 km+ - 100° 100° 15 kt METAR YHID 280500Z AUTO 10015KT 9999 // SCT016 31/24 Q1007 RF00.0/000.0
14:30
V
31 °C 10 km+ - 110° 110° 17 kt METAR YHID 280430Z AUTO 11017KT 9999 // SCT016 31/24 Q1008 RF00.0/000.0
14:00
V
31 °C 10 km+ - 110° 110° 16 kt METAR YHID 280400Z AUTO 11016KT 9999 // NCD 31/24 Q1008 RF00.0/000.0
13:30
V
32 °C 10 km+ - 100° 100° 14 kt METAR YHID 280330Z AUTO 10014KT 9999 // NCD 32/25 Q1008 RF00.0/000.0
13:00
V
31 °C 10 km+ - 110° 110° 16 kt METAR YHID 280300Z AUTO 11016KT 9999 // NCD 31/24 Q1008 RF00.0/000.0
12:30
V
31 °C 10 km+ - 090° 090° 15 kt METAR YHID 280230Z AUTO 09015KT 9999 // SCT016 31/25 Q1009 RF00.0/000.0
12:00
V
31 °C 10 km+ - 090° 090° 15 kt METAR YHID 280200Z AUTO 09015KT 9999 // NCD 31/24 Q1009 RF00.0/000.0
11:30
V
31 °C 10 km+ 5.500 ft 110° 110° 15 kt METAR YHID 280130Z AUTO 11015KT 9999 // SCT015 BKN055 31/25 Q1010
11:00
V
31 °C 10 km+ - 100° 100° 15 kt METAR YHID 280100Z AUTO 10015KT 9999 // SCT015 SCT041 SCT050 31/24 Q1010
10:30
V
30 °C 10 km+ - 090° 090° 12 kt METAR YHID 280030Z AUTO 09012KT 9999 // SCT015 30/25 Q1010 RF00.0/000.0
10:00
V
30 °C 10 km+ - 090° 090° 15 kt METAR YHID 280000Z AUTO 09015KT 9999 // NCD 30/25 Q1010 RF00.0/000.0
09:30
V
29 °C 10 km+ - 090° 090° 11 kt METAR YHID 272330Z AUTO 09011KT 9999 // NCD 29/24 Q1011 RF00.0/000.0
09:00
V
29 °C 10 km+ - 100° 100° 13 kt METAR YHID 272300Z AUTO 10013KT 9999 // NCD 29/24 Q1011 RF00.0/000.0
08:30
V
29 °C 10 km+ - 100° 100° 12 kt METAR YHID 272230Z AUTO 10012KT 9999 // SCT017 29/24 Q1011 RF00.0/000.0
08:06
M
29 °C 10 km+ 1.700 ft 110° 110° 16 - 26 kt METAR YHID 272206Z AUTO 11016G26KT 9999 // BKN017 29/24 Q1010 RF00.0/000.0 DL-W
07:30
M
28 °C 10 km+ 2.900 ft 120° 120° 12 kt METAR YHID 272130Z AUTO 12012KT 9999 // SCT019 BKN029 BKN038 28/24 Q1009
07:00
M
28 °C 10 km+ 2.400 ft 120° 120° 12 kt METAR YHID 272100Z AUTO 12012KT 9999 // SCT019 BKN024 BKN033 28/24 Q1009
06:30
M
28 °C 10 km+ 2.200 ft 130° 130° 9 kt METAR YHID 272030Z AUTO 13009KT 9999 // SCT017 BKN022 BKN037 28/24 Q1009
06:00
M
28 °C 10 km+ 1.900 ft 130° 130° 11 kt METAR YHID 272000Z AUTO 13011KT 9999 // BKN019 BKN034 OVC044 28/24 Q1008
05:30
M
28 °C 10 km+ 1.700 ft 130° 130° 9 kt METAR YHID 271930Z AUTO 13009KT 9999 // BKN017 BKN037 BKN047 28/24 Q1008
05:00
V
27 °C 10 km+ 4.500 ft 120° 120° 9 kt METAR YHID 271900Z AUTO 12009KT 9999 // SCT016 SCT040 BKN045 27/24 Q1008
04:30
M
27 °C 10 km+ 1.600 ft 130° 130° 9 kt METAR YHID 271830Z AUTO 13009KT 9999 // BKN016 BKN051 27/24 Q1008
04:00
V
27 °C 10 km+ 3.000 ft 130° 130° 9 kt METAR YHID 271800Z AUTO 13009KT 9999 // SCT016 SCT023 BKN030 27/24 Q1008
03:30
V
27 °C 10 km+ - 120° 120° 11 kt METAR YHID 271730Z AUTO 12011KT 9999 // SCT016 SCT022 SCT028 27/24 Q1008
03:00
M
27 °C 10 km+ 1.600 ft 120° 120° 11 kt METAR YHID 271700Z AUTO 12011KT 9999 // BKN016 BKN024 27/24 Q1008
02:30
M
27 °C 10 km+ 1.600 ft 130° 130° 11 kt METAR YHID 271630Z AUTO 13011KT 9999 // BKN016 BKN019 BKN027 27/24 Q1008
02:00
M
27 °C 10 km+ 1.600 ft 130° 130° 10 kt METAR YHID 271600Z AUTO 13010KT 9999 // BKN016 BKN022 27/24 Q1008
01:30
M
27 °C 10 km+ 1.800 ft 140° 140° 11 kt METAR YHID 271530Z AUTO 14011KT 9999 // BKN018 27/24 Q1009 RF00.0/000.0
01:00
V
27 °C 10 km+ - 130° 130° 11 kt METAR YHID 271500Z AUTO 13011KT 9999 // SCT016 27/24 Q1009 RF00.0/000.0
00:30
V
27 °C 10 km+ - 130° 130° 9 kt METAR YHID 271430Z AUTO 13009KT 9999 // SCT014 SCT056 27/24 Q1009
00:00
V
27 °C 10 km+ - 130° 130° 9 kt METAR YHID 271400Z AUTO 13009KT 9999 // SCT018 SCT032 SCT038 27/24 Q1010

27 de setembro de 2022

Hora Código Clima Temp. Visibilidade Tecto Vento METAR/SPECI
23:30
V
27 °C 10 km+ - 140° 140° 9 kt METAR YHID 271330Z AUTO 14009KT 9999 // SCT018 SCT026 SCT034 27/24 Q1010
23:00
M
27 °C 10 km+ 1.800 ft 140° 140° 9 kt METAR YHID 271300Z AUTO 14009KT 9999 // BKN018 27/24 Q1010 RF00.0/000.0
22:30
V
27 °C 10 km+ - 140° 140° 8 kt METAR YHID 271230Z AUTO 14008KT 9999 // SCT018 27/24 Q1010 RF00.0/000.0
22:00
M
27 °C 10 km+ 2.500 ft 140° 140° 10 kt METAR YHID 271200Z AUTO 14010KT 9999 // SCT016 BKN025 BKN043 27/24 Q1010
21:30
M
28 °C 10 km+ 1.900 ft 140° 140° 8 kt METAR YHID 271130Z AUTO 14008KT 9999 // BKN019 BKN023 BKN032 28/24 Q1010
21:00
V
28 °C 10 km+ - 140° 140° 9 kt METAR YHID 271100Z AUTO 14009KT 9999 // SCT035 SCT042 28/24 Q1009
20:30
V
28 °C 10 km+ - 130° 130° 11 kt METAR YHID 271030Z AUTO 13011KT 9999 // SCT017 28/24 Q1009 RF00.0/000.0
20:00
V
28 °C 10 km+ - 120° 120° 12 kt METAR YHID 271000Z AUTO 12012KT 9999 // SCT019 28/24 Q1009 RF00.0/000.0
19:30
V
28 °C 10 km+ - 110° 110° 12 kt METAR YHID 270930Z AUTO 11012KT 9999 // NCD 28/24 Q1008 RF00.0/000.0
19:00
V
28 °C 10 km+ - 120° 120° 11 kt METAR YHID 270900Z AUTO 12011KT 9999 // SCT032 28/24 Q1008 RF00.0/000.0
18:30
M
28 °C 10 km+ 2.400 ft 120° 120° 13 kt METAR YHID 270830Z AUTO 12013KT 9999 // SCT020 BKN024 BKN032 28/24 Q1008
18:00
V
28 °C 10 km+ - 110° 110° 12 kt METAR YHID 270800Z AUTO 11012KT 9999 // SCT020 28/24 Q1008 RF00.0/000.0
17:30
V
29 °C 10 km+ - 110° 110° 14 kt METAR YHID 270730Z AUTO 11014KT 9999 // SCT016 29/24 Q1007 RF00.0/000.0
17:00
M
30 °C 10 km+ 1.600 ft 100° 100° 14 kt METAR YHID 270700Z AUTO 10014KT 9999 // BKN016 30/24 Q1007 RF00.0/000.0
16:30
V
31 °C 10 km+ - 100° 100° 14 kt METAR YHID 270630Z AUTO 10014KT 9999 // SCT016 31/25 Q1007 RF00.0/000.0
16:00
V
30 °C 10 km+ - 100° 100° 15 kt METAR YHID 270600Z AUTO 10015KT 9999 // NCD 30/24 Q1007 RF00.0/000.0
15:30
V
31 °C 10 km+ - 110° 110° 15 kt METAR YHID 270530Z AUTO 11015KT 9999 // SCT017 31/24 Q1007 RF00.0/000.0
15:00
V
31 °C 10 km+ - 110° 110° 16 kt METAR YHID 270500Z AUTO 11016KT 9999 // NCD 31/24 Q1007 RF00.0/000.0
14:30
V
31 °C 10 km+ - 100° 100° 17 kt METAR YHID 270430Z AUTO 10017KT 9999 // NCD 31/24 Q1008 RF00.0/000.0
14:00
V
31 °C 10 km+ - 100° 100° 17 kt METAR YHID 270400Z AUTO 10017KT 9999 // SCT017 31/24 Q1008 RF00.0/000.0
13:30
V
31 °C 10 km+ - 100° 100° 16 kt METAR YHID 270330Z AUTO 10016KT 9999 // SCT014 31/25 Q1008 RF00.0/000.0
13:00
V
31 °C 10 km+ - 100° 100° 19 kt METAR YHID 270300Z AUTO 10019KT 9999 // NCD 31/24 Q1008 RF00.0/000.0
12:30
V
32 °C 10 km+ - 100° 100° 19 kt METAR YHID 270230Z AUTO 10019KT 9999 // NCD 32/25 Q1009 RF00.0/000.0
12:00
V
32 °C 10 km+ - 100° 100° 17 kt METAR YHID 270200Z AUTO 10017KT 9999 // SCT017 SCT022 32/25 Q1009
11:30
V
32 °C 10 km+ - 100° 100° 18 kt METAR YHID 270130Z AUTO 10018KT 9999 // SCT017 32/24 Q1010 RF00.0/000.0
11:00
V
31 °C 10 km+ - 100° 100° 18 kt METAR YHID 270100Z AUTO 10018KT 9999 // SCT015 31/24 Q1010 RF00.0/000.0
10:30
V
31 °C 10 km+ - 110° 110° 19 kt METAR YHID 270030Z AUTO 11019KT 9999 // SCT016 31/25 Q1010 RF00.0/000.0
10:00
M
30 °C 10 km+ 2.200 ft 110° 110° 17 kt METAR YHID 270000Z AUTO 11017KT 9999 // SCT016 BKN022 30/24 Q1010
09:30
V
30 °C 10 km+ - 100° 100° 16 kt METAR YHID 262330Z AUTO 10016KT 9999 // SCT018 30/24 Q1010 RF00.0/000.0
09:00
M
30 °C 10 km+ 1.800 ft 100° 100° 16 kt METAR YHID 262300Z AUTO 10016KT 9999 // BKN018 BKN025 30/24 Q1010
08:30
V
30 °C 10 km+ - 110° 110° 14 kt METAR YHID 262230Z AUTO 11014KT 9999 // SCT016 SCT021 30/24 Q1010
08:00
M
29 °C 10 km+ 1.800 ft 110° 110° 12 kt METAR YHID 262200Z AUTO 11012KT 9999 // BKN018 OVC034 29/24 Q1010
07:30
V
28 °C 10 km+ 4.900 ft 110° 110° 11 kt METAR YHID 262130Z AUTO 11011KT 9999 // SCT016 BKN049 BKN058 28/24 Q1009
07:00
V
28 °C 10 km+ 3.400 ft 110° 110° 12 kt METAR YHID 262100Z AUTO 11012KT 9999 // SCT018 SCT028 BKN034 28/24 Q1009
06:30
V
28 °C 10 km+ 3.400 ft 120° 120° 13 kt METAR YHID 262030Z AUTO 12013KT 9999 // SCT016 SCT026 BKN034 28/24 Q1009
06:00
M
28 °C 10 km+ 1.600 ft 120° 120° 12 kt METAR YHID 262000Z AUTO 12012KT 9999 // BKN016 BKN021 28/24 Q1008
05:30
V
28 °C 10 km+ - 110° 110° 14 kt METAR YHID 261930Z AUTO 11014KT 9999 // SCT016 SCT021 28/24 Q1008
05:00
M
28 °C 10 km+ 2.000 ft 110° 110° 14 kt METAR YHID 261900Z AUTO 11014KT 9999 // SCT016 BKN020 BKN025 28/24 Q1008
04:30
M
28 °C 10 km+ 1.600 ft 110° 110° 15 kt METAR YHID 261830Z AUTO 11015KT 9999 // BKN016 BKN023 BKN031 28/24 Q1008
04:00
M
28 °C 10 km+ 1.600 ft 110° 110° 13 kt METAR YHID 261800Z AUTO 11013KT 9999 // BKN016 28/24 Q1008 RF00.0/000.0
03:30
M
28 °C 10 km+ 1.600 ft 110° 110° 14 kt METAR YHID 261730Z AUTO 11014KT 9999 // BKN016 28/24 Q1007 RF00.0/000.0
03:00
V
28 °C 10 km+ - 110° 110° 13 kt METAR YHID 261700Z AUTO 11013KT 9999 // SCT016 28/24 Q1007 RF00.0/000.0
02:30
V
28 °C 10 km+ 5.800 ft 110° 110° 16 kt METAR YHID 261630Z AUTO 11016KT 9999 // SCT016 SCT020 BKN058 28/24 Q1008
02:00
V
28 °C 10 km+ 4.500 ft 110° 110° 16 kt METAR YHID 261600Z AUTO 11016KT 9999 // SCT018 SCT026 BKN045 28/24 Q1008
01:30
V
28 °C 10 km+ 3.300 ft 120° 120° 13 kt METAR YHID 261530Z AUTO 12013KT 9999 // SCT018 BKN033 BKN037 28/24 Q1008
01:00
V
28 °C 10 km+ 3.700 ft 120° 120° 13 kt METAR YHID 261500Z AUTO 12013KT 9999 // SCT018 SCT031 BKN037 28/24 Q1009
00:30
V
28 °C 10 km+ 5.100 ft 120° 120° 14 kt METAR YHID 261430Z AUTO 12014KT 9999 // SCT018 BKN051 28/24 Q1009
00:00
V
28 °C 10 km+ 4.500 ft 110° 110° 13 kt METAR YHID 261400Z AUTO 11013KT 9999 // SCT019 BKN045 OVC053 28/24 Q1009

26 de setembro de 2022

Hora Código Clima Temp. Visibilidade Tecto Vento METAR/SPECI
23:30
M
28 °C 10 km+ 2.600 ft 120° 120° 14 kt METAR YHID 261330Z AUTO 12014KT 9999 // SCT017 SCT021 BKN026 28/24 Q1009
23:00
M
28 °C 10 km+ 1.700 ft 120° 120° 12 kt METAR YHID 261300Z AUTO 12012KT 9999 // BKN017 BKN021 BKN041 28/24 Q1009
22:30
V
28 °C 10 km+ - 110° 110° 13 kt METAR YHID 261230Z AUTO 11013KT 9999 // SCT017 28/24 Q1009 RF00.0/000.0
22:00
V
28 °C 10 km+ - 110° 110° 12 kt METAR YHID 261200Z AUTO 11012KT 9999 // NCD 28/24 Q1009 RF00.0/000.0
21:30
V
28 °C 10 km+ - 110° 110° 13 kt METAR YHID 261130Z AUTO 11013KT 9999 // NCD 28/24 Q1009 RF00.0/000.0
21:00
V
28 °C 10 km+ - 120° 120° 12 kt METAR YHID 261100Z AUTO 12012KT 9999 // SCT016 28/24 Q1009 RF00.0/000.0
20:30
M
28 °C 10 km+ 1.800 ft 120° 120° 12 kt METAR YHID 261030Z AUTO 12012KT 9999 // BKN018 BKN052 28/24 Q1008
20:00
M
28 °C 10 km+ 2.900 ft 120° 120° 13 kt METAR YHID 261000Z AUTO 12013KT 9999 // SCT018 BKN029 BKN035 28/24 Q1008
19:30
M
28 °C 10 km+ 2.000 ft 120° 120° 13 kt METAR YHID 260930Z AUTO 12013KT 9999 // BKN020 BKN025 OVC029 28/24 Q1008
19:00
V
28 °C 10 km+ - 110° 110° 12 kt METAR YHID 260900Z AUTO 11012KT 9999 // SCT018 SCT024 28/24 Q1008
Dados mais antigos

Nós e terceiros acompanhamos seu comportamento na internet em nosso site com cookies. Se você continuar, nós assumimos que você concorda com nossa política de cookies. Saiba mais